sensor_id;sensor_type;location;lat;lon;timestamp;temperature;humidity
11540;DHT22;5826;54.756;9.192;2023-07-28T00:02:18;17.30;99.90
11540;DHT22;5826;54.756;9.192;2023-07-28T00:04:43;17.30;99.90
11540;DHT22;5826;54.756;9.192;2023-07-28T00:07:09;17.30;99.90
11540;DHT22;5826;54.756;9.192;2023-07-28T00:09:34;17.30;99.90
11540;DHT22;5826;54.756;9.192;2023-07-28T00:12:00;17.30;99.90
11540;DHT22;5826;54.756;9.192;2023-07-28T00:14:27;17.30;99.90
11540;DHT22;5826;54.756;9.192;2023-07-28T00:16:53;17.30;99.90
11540;DHT22;5826;54.756;9.192;2023-07-28T00:19:20;17.30;99.90
11540;DHT22;5826;54.756;9.192;2023-07-28T00:21:47;17.30;99.90
11540;DHT22;5826;54.756;9.192;2023-07-28T00:24:12;17.30;99.90
11540;DHT22;5826;54.756;9.192;2023-07-28T00:26:38;17.30;99.90
11540;DHT22;5826;54.756;9.192;2023-07-28T00:29:03;17.30;99.90
11540;DHT22;5826;54.756;9.192;2023-07-28T00:31:32;17.30;99.90
11540;DHT22;5826;54.756;9.192;2023-07-28T00:33:57;17.30;99.90
11540;DHT22;5826;54.756;9.192;2023-07-28T00:36:22;17.70;99.90
11540;DHT22;5826;54.756;9.192;2023-07-28T00:38:48;17.20;99.90
11540;DHT22;5826;54.756;9.192;2023-07-28T00:41:14;17.20;99.90
11540;DHT22;5826;54.756;9.192;2023-07-28T00:43:39;17.20;99.90
11540;DHT22;5826;54.756;9.192;2023-07-28T00:46:05;17.20;99.90
11540;DHT22;5826;54.756;9.192;2023-07-28T00:48:30;17.20;99.90
11540;DHT22;5826;54.756;9.192;2023-07-28T00:50:56;17.20;99.90
11540;DHT22;5826;54.756;9.192;2023-07-28T00:53:23;17.20;99.90
11540;DHT22;5826;54.756;9.192;2023-07-28T00:55:49;17.20;99.90
11540;DHT22;5826;54.756;9.192;2023-07-28T00:58:15;17.20;99.90
11540;DHT22;5826;54.756;9.192;2023-07-28T01:00:40;17.20;99.90
11540;DHT22;5826;54.756;9.192;2023-07-28T01:03:06;17.20;99.90
11540;DHT22;5826;54.756;9.192;2023-07-28T01:08:32;17.10;99.90
11540;DHT22;5826;54.756;9.192;2023-07-28T01:10:58;17.10;99.90
11540;DHT22;5826;54.756;9.192;2023-07-28T01:13:23;17.10;99.90
11540;DHT22;5826;54.756;9.192;2023-07-28T01:15:49;17.20;99.90
11540;DHT22;5826;54.756;9.192;2023-07-28T01:18:14;17.10;99.90
11540;DHT22;5826;54.756;9.192;2023-07-28T01:20:41;17.10;99.90
11540;DHT22;5826;54.756;9.192;2023-07-28T01:23:12;17.10;99.90
11540;DHT22;5826;54.756;9.192;2023-07-28T01:28:26;17.00;99.90
11540;DHT22;5826;54.756;9.192;2023-07-28T01:30:51;17.00;99.90
11540;DHT22;5826;54.756;9.192;2023-07-28T01:33:17;17.00;99.90
11540;DHT22;5826;54.756;9.192;2023-07-28T01:35:42;16.90;99.90
11540;DHT22;5826;54.756;9.192;2023-07-28T01:38:08;16.90;99.90
11540;DHT22;5826;54.756;9.192;2023-07-28T01:40:33;16.90;99.90
11540;DHT22;5826;54.756;9.192;2023-07-28T01:42:59;16.80;99.90
11540;DHT22;5826;54.756;9.192;2023-07-28T01:45:24;16.90;99.90
11540;DHT22;5826;54.756;9.192;2023-07-28T01:47:50;16.80;99.90
11540;DHT22;5826;54.756;9.192;2023-07-28T01:50:15;16.80;99.90
11540;DHT22;5826;54.756;9.192;2023-07-28T01:52:41;16.80;99.90
11540;DHT22;5826;54.756;9.192;2023-07-28T01:55:07;16.80;99.90
11540;DHT22;5826;54.756;9.192;2023-07-28T01:57:39;16.80;99.90
11540;DHT22;5826;54.756;9.192;2023-07-28T02:00:05;16.80;99.90
11540;DHT22;5826;54.756;9.192;2023-07-28T02:02:31;16.70;99.90
11540;DHT22;5826;54.756;9.192;2023-07-28T02:04:56;16.70;99.90
11540;DHT22;5826;54.756;9.192;2023-07-28T02:07:22;16.70;99.90
11540;DHT22;5826;54.756;9.192;2023-07-28T02:09:47;16.70;99.90
11540;DHT22;5826;54.756;9.192;2023-07-28T02:12:13;16.70;99.90
11540;DHT22;5826;54.756;9.192;2023-07-28T02:14:38;16.70;99.90
11540;DHT22;5826;54.756;9.192;2023-07-28T02:17:04;16.70;99.90
11540;DHT22;5826;54.756;9.192;2023-07-28T02:19:30;16.70;99.90
11540;DHT22;5826;54.756;9.192;2023-07-28T02:21:56;16.70;99.90
11540;DHT22;5826;54.756;9.192;2023-07-28T02:24:21;16.70;99.90
11540;DHT22;5826;54.756;9.192;2023-07-28T02:26:47;16.70;99.90
11540;DHT22;5826;54.756;9.192;2023-07-28T02:29:12;16.70;99.90
11540;DHT22;5826;54.756;9.192;2023-07-28T02:31:38;16.70;99.90
11540;DHT22;5826;54.756;9.192;2023-07-28T02:34:03;16.70;99.90
11540;DHT22;5826;54.756;9.192;2023-07-28T02:36:29;16.70;99.90
11540;DHT22;5826;54.756;9.192;2023-07-28T02:38:54;16.70;99.90
11540;DHT22;5826;54.756;9.192;2023-07-28T02:41:20;16.70;99.90
11540;DHT22;5826;54.756;9.192;2023-07-28T02:43:45;16.60;99.90
11540;DHT22;5826;54.756;9.192;2023-07-28T02:46:11;16.60;99.90
11540;DHT22;5826;54.756;9.192;2023-07-28T02:48:36;16.60;99.90
11540;DHT22;5826;54.756;9.192;2023-07-28T02:51:02;16.60;99.90
11540;DHT22;5826;54.756;9.192;2023-07-28T02:53:27;16.60;99.90
11540;DHT22;5826;54.756;9.192;2023-07-28T02:55:53;16.60;99.90
11540;DHT22;5826;54.756;9.192;2023-07-28T02:58:19;16.60;99.90
11540;DHT22;5826;54.756;9.192;2023-07-28T03:00:44;16.60;99.90
11540;DHT22;5826;54.756;9.192;2023-07-28T03:03:12;16.50;99.90
11540;DHT22;5826;54.756;9.192;2023-07-28T03:05:39;16.50;99.90
11540;DHT22;5826;54.756;9.192;2023-07-28T03:08:05;16.50;99.90
11540;DHT22;5826;54.756;9.192;2023-07-28T03:10:31;16.40;99.90
11540;DHT22;5826;54.756;9.192;2023-07-28T03:12:57;16.40;99.90
11540;DHT22;5826;54.756;9.192;2023-07-28T03:15:23;16.40;99.90
11540;DHT22;5826;54.756;9.192;2023-07-28T03:17:49;16.40;99.90
11540;DHT22;5826;54.756;9.192;2023-07-28T03:20:15;16.40;99.90
11540;DHT22;5826;54.756;9.192;2023-07-28T03:22:41;16.40;99.90
11540;DHT22;5826;54.756;9.192;2023-07-28T03:25:06;16.40;99.90
11540;DHT22;5826;54.756;9.192;2023-07-28T03:27:32;16.50;99.90
11540;DHT22;5826;54.756;9.192;2023-07-28T03:29:57;16.50;99.90
11540;DHT22;5826;54.756;9.192;2023-07-28T03:32:23;16.50;99.90
11540;DHT22;5826;54.756;9.192;2023-07-28T03:34:48;16.50;99.90
11540;DHT22;5826;54.756;9.192;2023-07-28T03:37:14;16.50;99.90
11540;DHT22;5826;54.756;9.192;2023-07-28T03:39:39;16.50;99.90
11540;DHT22;5826;54.756;9.192;2023-07-28T03:42:05;16.40;99.90
11540;DHT22;5826;54.756;9.192;2023-07-28T03:44:31;16.50;99.90
11540;DHT22;5826;54.756;9.192;2023-07-28T03:46:56;16.50;99.90
11540;DHT22;5826;54.756;9.192;2023-07-28T03:49:22;16.50;99.90
11540;DHT22;5826;54.756;9.192;2023-07-28T03:51:47;16.50;99.90
11540;DHT22;5826;54.756;9.192;2023-07-28T03:54:13;16.40;99.90
11540;DHT22;5826;54.756;9.192;2023-07-28T03:56:38;16.40;99.90
11540;DHT22;5826;54.756;9.192;2023-07-28T03:59:04;16.40;99.90
11540;DHT22;5826;54.756;9.192;2023-07-28T04:01:29;16.40;99.90
11540;DHT22;5826;54.756;9.192;2023-07-28T04:03:55;16.40;99.90
11540;DHT22;5826;54.756;9.192;2023-07-28T04:06:43;16.40;99.90
11540;DHT22;5826;54.756;9.192;2023-07-28T04:09:09;16.40;99.90
11540;DHT22;5826;54.756;9.192;2023-07-28T04:11:34;16.40;99.90
11540;DHT22;5826;54.756;9.192;2023-07-28T04:14:00;16.40;99.90
11540;DHT22;5826;54.756;9.192;2023-07-28T04:16:26;16.40;99.90
11540;DHT22;5826;54.756;9.192;2023-07-28T04:18:51;16.40;99.90
11540;DHT22;5826;54.756;9.192;2023-07-28T04:21:17;16.40;99.90
11540;DHT22;5826;54.756;9.192;2023-07-28T04:23:42;16.40;99.90
11540;DHT22;5826;54.756;9.192;2023-07-28T04:26:08;16.40;99.90
11540;DHT22;5826;54.756;9.192;2023-07-28T04:28:34;16.50;99.90
11540;DHT22;5826;54.756;9.192;2023-07-28T04:30:59;16.50;99.90
11540;DHT22;5826;54.756;9.192;2023-07-28T04:33:25;16.50;99.90
11540;DHT22;5826;54.756;9.192;2023-07-28T04:35:50;16.50;99.90
11540;DHT22;5826;54.756;9.192;2023-07-28T04:38:16;16.50;99.90
11540;DHT22;5826;54.756;9.192;2023-07-28T04:40:43;16.60;99.90
11540;DHT22;5826;54.756;9.192;2023-07-28T04:43:09;16.60;99.90
11540;DHT22;5826;54.756;9.192;2023-07-28T04:45:34;16.70;99.90
11540;DHT22;5826;54.756;9.192;2023-07-28T04:48:00;16.70;99.90
11540;DHT22;5826;54.756;9.192;2023-07-28T04:50:25;16.70;99.90
11540;DHT22;5826;54.756;9.192;2023-07-28T04:52:51;16.80;99.90
11540;DHT22;5826;54.756;9.192;2023-07-28T04:55:16;16.80;99.90
11540;DHT22;5826;54.756;9.192;2023-07-28T04:57:42;16.80;99.90
11540;DHT22;5826;54.756;9.192;2023-07-28T05:00:08;16.80;99.90
11540;DHT22;5826;54.756;9.192;2023-07-28T05:02:33;16.80;99.90
11540;DHT22;5826;54.756;9.192;2023-07-28T05:04:59;16.80;99.90
11540;DHT22;5826;54.756;9.192;2023-07-28T05:07:25;16.90;99.90
11540;DHT22;5826;54.756;9.192;2023-07-28T05:09:50;16.90;99.90
11540;DHT22;5826;54.756;9.192;2023-07-28T05:12:16;16.90;99.90
11540;DHT22;5826;54.756;9.192;2023-07-28T05:14:41;17.00;99.90
11540;DHT22;5826;54.756;9.192;2023-07-28T05:17:07;17.00;99.90
11540;DHT22;5826;54.756;9.192;2023-07-28T05:19:33;17.00;99.90
11540;DHT22;5826;54.756;9.192;2023-07-28T05:21:58;17.00;99.90
11540;DHT22;5826;54.756;9.192;2023-07-28T05:24:24;17.00;99.90
11540;DHT22;5826;54.756;9.192;2023-07-28T05:26:49;17.00;99.90
11540;DHT22;5826;54.756;9.192;2023-07-28T05:29:15;17.00;99.90
11540;DHT22;5826;54.756;9.192;2023-07-28T05:31:40;17.00;99.90
11540;DHT22;5826;54.756;9.192;2023-07-28T05:34:05;17.00;99.90
11540;DHT22;5826;54.756;9.192;2023-07-28T05:36:31;17.00;99.90
11540;DHT22;5826;54.756;9.192;2023-07-28T05:38:57;17.00;99.90
11540;DHT22;5826;54.756;9.192;2023-07-28T05:41:23;17.00;99.90
11540;DHT22;5826;54.756;9.192;2023-07-28T05:43:49;17.00;99.90
11540;DHT22;5826;54.756;9.192;2023-07-28T05:46:16;17.10;99.90
11540;DHT22;5826;54.756;9.192;2023-07-28T05:48:41;17.10;99.90
11540;DHT22;5826;54.756;9.192;2023-07-28T05:51:07;17.10;99.90
11540;DHT22;5826;54.756;9.192;2023-07-28T05:53:32;17.20;99.90
11540;DHT22;5826;54.756;9.192;2023-07-28T05:55:58;17.20;99.90
11540;DHT22;5826;54.756;9.192;2023-07-28T05:58:23;17.30;99.90
11540;DHT22;5826;54.756;9.192;2023-07-28T06:00:49;17.30;99.90
11540;DHT22;5826;54.756;9.192;2023-07-28T06:03:16;17.40;99.90
11540;DHT22;5826;54.756;9.192;2023-07-28T06:05:42;17.50;99.90
11540;DHT22;5826;54.756;9.192;2023-07-28T06:08:08;17.50;99.90
11540;DHT22;5826;54.756;9.192;2023-07-28T06:10:34;17.60;99.90
11540;DHT22;5826;54.756;9.192;2023-07-28T06:13:00;17.70;99.90
11540;DHT22;5826;54.756;9.192;2023-07-28T06:15:25;17.70;99.90
11540;DHT22;5826;54.756;9.192;2023-07-28T06:17:51;17.80;99.90
11540;DHT22;5826;54.756;9.192;2023-07-28T06:20:16;17.80;99.90
11540;DHT22;5826;54.756;9.192;2023-07-28T06:22:42;17.90;99.90
11540;DHT22;5826;54.756;9.192;2023-07-28T06:25:07;17.90;99.90
11540;DHT22;5826;54.756;9.192;2023-07-28T06:27:33;18.00;99.90
11540;DHT22;5826;54.756;9.192;2023-07-28T06:29:59;18.10;99.90
11540;DHT22;5826;54.756;9.192;2023-07-28T06:32:24;18.10;99.90
11540;DHT22;5826;54.756;9.192;2023-07-28T06:34:50;18.20;99.90
11540;DHT22;5826;54.756;9.192;2023-07-28T06:37:17;18.30;99.90
11540;DHT22;5826;54.756;9.192;2023-07-28T06:39:42;18.40;99.90
11540;DHT22;5826;54.756;9.192;2023-07-28T06:42:08;18.50;99.90
11540;DHT22;5826;54.756;9.192;2023-07-28T06:44:33;18.50;99.90
11540;DHT22;5826;54.756;9.192;2023-07-28T06:46:59;18.60;99.90
11540;DHT22;5826;54.756;9.192;2023-07-28T06:49:24;18.60;99.90
11540;DHT22;5826;54.756;9.192;2023-07-28T06:51:50;18.70;99.90
11540;DHT22;5826;54.756;9.192;2023-07-28T06:54:15;18.80;99.90
11540;DHT22;5826;54.756;9.192;2023-07-28T06:56:41;18.80;99.90
11540;DHT22;5826;54.756;9.192;2023-07-28T06:59:07;19.00;99.90
11540;DHT22;5826;54.756;9.192;2023-07-28T07:01:33;19.00;99.90
11540;DHT22;5826;54.756;9.192;2023-07-28T07:03:59;19.60;99.90
11540;DHT22;5826;54.756;9.192;2023-07-28T07:06:25;19.20;99.90
11540;DHT22;5826;54.756;9.192;2023-07-28T07:08:50;19.20;99.90
11540;DHT22;5826;54.756;9.192;2023-07-28T07:11:16;19.20;99.90
11540;DHT22;5826;54.756;9.192;2023-07-28T07:13:41;19.30;99.90
11540;DHT22;5826;54.756;9.192;2023-07-28T07:16:16;19.30;99.90
11540;DHT22;5826;54.756;9.192;2023-07-28T07:18:42;19.40;99.90
11540;DHT22;5826;54.756;9.192;2023-07-28T07:21:08;19.40;99.90
11540;DHT22;5826;54.756;9.192;2023-07-28T07:23:34;19.50;99.90
11540;DHT22;5826;54.756;9.192;2023-07-28T07:25:59;19.50;99.90
11540;DHT22;5826;54.756;9.192;2023-07-28T07:28:25;19.60;99.90
11540;DHT22;5826;54.756;9.192;2023-07-28T07:30:50;19.60;99.90
11540;DHT22;5826;54.756;9.192;2023-07-28T07:33:16;19.70;99.90
11540;DHT22;5826;54.756;9.192;2023-07-28T07:35:41;19.80;99.90
11540;DHT22;5826;54.756;9.192;2023-07-28T07:38:07;19.90;99.90
11540;DHT22;5826;54.756;9.192;2023-07-28T07:40:35;20.00;99.90
11540;DHT22;5826;54.756;9.192;2023-07-28T07:43:01;20.10;99.90
11540;DHT22;5826;54.756;9.192;2023-07-28T07:45:31;20.00;99.90
11540;DHT22;5826;54.756;9.192;2023-07-28T07:47:58;20.10;99.90
11540;DHT22;5826;54.756;9.192;2023-07-28T07:50:23;20.20;99.90
11540;DHT22;5826;54.756;9.192;2023-07-28T07:52:49;20.30;99.90
11540;DHT22;5826;54.756;9.192;2023-07-28T07:55:14;20.40;99.90
11540;DHT22;5826;54.756;9.192;2023-07-28T07:57:40;20.50;99.90
11540;DHT22;5826;54.756;9.192;2023-07-28T08:00:07;20.50;99.90
11540;DHT22;5826;54.756;9.192;2023-07-28T08:02:33;20.60;99.90
11540;DHT22;5826;54.756;9.192;2023-07-28T08:04:59;20.60;99.90
11540;DHT22;5826;54.756;9.192;2023-07-28T08:07:25;20.80;99.90
11540;DHT22;5826;54.756;9.192;2023-07-28T08:09:50;20.70;99.90
11540;DHT22;5826;54.756;9.192;2023-07-28T08:12:16;20.70;99.90
11540;DHT22;5826;54.756;9.192;2023-07-28T08:14:42;20.70;99.90
11540;DHT22;5826;54.756;9.192;2023-07-28T08:17:09;20.80;99.90
11540;DHT22;5826;54.756;9.192;2023-07-28T08:19:34;21.10;99.90
11540;DHT22;5826;54.756;9.192;2023-07-28T08:22:00;21.10;99.90
11540;DHT22;5826;54.756;9.192;2023-07-28T08:24:26;21.30;99.90
11540;DHT22;5826;54.756;9.192;2023-07-28T08:26:51;21.50;99.90
11540;DHT22;5826;54.756;9.192;2023-07-28T08:29:17;21.60;99.90
11540;DHT22;5826;54.756;9.192;2023-07-28T08:31:42;21.70;99.90
11540;DHT22;5826;54.756;9.192;2023-07-28T08:34:08;21.80;99.90
11540;DHT22;5826;54.756;9.192;2023-07-28T08:36:34;22.30;99.90
11540;DHT22;5826;54.756;9.192;2023-07-28T08:39:00;22.00;99.90
11540;DHT22;5826;54.756;9.192;2023-07-28T08:41:25;22.20;99.90
11540;DHT22;5826;54.756;9.192;2023-07-28T08:43:51;22.00;99.90
11540;DHT22;5826;54.756;9.192;2023-07-28T08:46:20;22.00;99.90
11540;DHT22;5826;54.756;9.192;2023-07-28T08:48:45;22.30;99.90
11540;DHT22;5826;54.756;9.192;2023-07-28T08:51:12;22.00;99.90
11540;DHT22;5826;54.756;9.192;2023-07-28T08:53:38;22.00;99.90
11540;DHT22;5826;54.756;9.192;2023-07-28T08:56:04;22.00;99.90
11540;DHT22;5826;54.756;9.192;2023-07-28T08:58:29;21.90;99.90
11540;DHT22;5826;54.756;9.192;2023-07-28T09:00:55;21.70;99.90
11540;DHT22;5826;54.756;9.192;2023-07-28T09:03:21;21.60;99.90
11540;DHT22;5826;54.756;9.192;2023-07-28T09:05:47;21.50;99.90
11540;DHT22;5826;54.756;9.192;2023-07-28T09:08:15;21.40;99.90
11540;DHT22;5826;54.756;9.192;2023-07-28T09:10:50;21.30;99.90
11540;DHT22;5826;54.756;9.192;2023-07-28T09:13:18;21.40;99.90
11540;DHT22;5826;54.756;9.192;2023-07-28T09:15:44;21.50;99.90
11540;DHT22;5826;54.756;9.192;2023-07-28T09:18:11;21.80;99.90
11540;DHT22;5826;54.756;9.192;2023-07-28T09:20:38;22.00;99.90
11540;DHT22;5826;54.756;9.192;2023-07-28T09:23:04;22.20;99.90
11540;DHT22;5826;54.756;9.192;2023-07-28T09:25:31;22.30;99.90
11540;DHT22;5826;54.756;9.192;2023-07-28T09:27:57;22.50;99.90
11540;DHT22;5826;54.756;9.192;2023-07-28T09:30:24;22.70;99.90
11540;DHT22;5826;54.756;9.192;2023-07-28T09:32:51;22.70;99.90
11540;DHT22;5826;54.756;9.192;2023-07-28T09:35:17;22.80;99.90
11540;DHT22;5826;54.756;9.192;2023-07-28T09:37:46;22.80;99.90
11540;DHT22;5826;54.756;9.192;2023-07-28T09:40:14;22.70;99.90
11540;DHT22;5826;54.756;9.192;2023-07-28T09:42:41;22.50;99.90
11540;DHT22;5826;54.756;9.192;2023-07-28T09:45:07;22.40;99.90
11540;DHT22;5826;54.756;9.192;2023-07-28T09:47:34;22.30;99.90
11540;DHT22;5826;54.756;9.192;2023-07-28T09:50:03;22.30;99.90
11540;DHT22;5826;54.756;9.192;2023-07-28T09:52:33;22.30;99.90
11540;DHT22;5826;54.756;9.192;2023-07-28T09:55:00;22.30;99.90
11540;DHT22;5826;54.756;9.192;2023-07-28T09:57:29;22.30;99.90
11540;DHT22;5826;54.756;9.192;2023-07-28T10:00:00;22.20;99.90
11540;DHT22;5826;54.756;9.192;2023-07-28T10:02:26;22.20;99.90
11540;DHT22;5826;54.756;9.192;2023-07-28T10:04:52;22.10;99.90
11540;DHT22;5826;54.756;9.192;2023-07-28T10:07:19;22.10;99.90
11540;DHT22;5826;54.756;9.192;2023-07-28T10:09:44;22.20;99.90
11540;DHT22;5826;54.756;9.192;2023-07-28T10:12:24;22.40;99.90
11540;DHT22;5826;54.756;9.192;2023-07-28T10:15:01;22.50;99.90
11540;DHT22;5826;54.756;9.192;2023-07-28T10:17:34;22.60;99.90
11540;DHT22;5826;54.756;9.192;2023-07-28T10:20:04;22.60;99.90
11540;DHT22;5826;54.756;9.192;2023-07-28T10:22:43;22.80;99.90
11540;DHT22;5826;54.756;9.192;2023-07-28T10:25:10;23.10;99.90
11540;DHT22;5826;54.756;9.192;2023-07-28T10:27:44;23.20;99.90
11540;DHT22;5826;54.756;9.192;2023-07-28T10:30:12;23.40;99.90
11540;DHT22;5826;54.756;9.192;2023-07-28T10:32:48;23.60;99.90
11540;DHT22;5826;54.756;9.192;2023-07-28T10:37:47;24.20;99.90
11540;DHT22;5826;54.756;9.192;2023-07-28T10:40:33;24.40;99.90
11540;DHT22;5826;54.756;9.192;2023-07-28T10:43:00;24.70;99.90
11540;DHT22;5826;54.756;9.192;2023-07-28T10:45:27;24.60;99.90
11540;DHT22;5826;54.756;9.192;2023-07-28T10:47:54;24.50;99.90
11540;DHT22;5826;54.756;9.192;2023-07-28T10:50:30;24.20;99.90
11540;DHT22;5826;54.756;9.192;2023-07-28T10:52:56;24.10;99.90
11540;DHT22;5826;54.756;9.192;2023-07-28T10:55:24;24.10;99.90
11540;DHT22;5826;54.756;9.192;2023-07-28T10:57:51;24.20;99.90
11540;DHT22;5826;54.756;9.192;2023-07-28T11:00:19;24.30;99.90
11540;DHT22;5826;54.756;9.192;2023-07-28T11:02:50;24.50;99.90
11540;DHT22;5826;54.756;9.192;2023-07-28T11:05:23;24.70;99.90
11540;DHT22;5826;54.756;9.192;2023-07-28T11:07:50;24.80;99.90
11540;DHT22;5826;54.756;9.192;2023-07-28T11:10:15;24.90;99.90
11540;DHT22;5826;54.756;9.192;2023-07-28T11:12:49;25.00;99.90
11540;DHT22;5826;54.756;9.192;2023-07-28T11:15:16;24.90;99.90
11540;DHT22;5826;54.756;9.192;2023-07-28T11:17:48;25.10;99.90
11540;DHT22;5826;54.756;9.192;2023-07-28T11:20:25;25.20;99.90
11540;DHT22;5826;54.756;9.192;2023-07-28T11:22:56;25.40;99.90
11540;DHT22;5826;54.756;9.192;2023-07-28T11:25:22;25.30;99.90
11540;DHT22;5826;54.756;9.192;2023-07-28T11:27:49;25.20;99.90
11540;DHT22;5826;54.756;9.192;2023-07-28T11:30:16;25.30;99.90
11540;DHT22;5826;54.756;9.192;2023-07-28T11:32:43;25.40;99.90
11540;DHT22;5826;54.756;9.192;2023-07-28T11:35:11;25.50;99.90
11540;DHT22;5826;54.756;9.192;2023-07-28T11:37:41;25.60;99.90
11540;DHT22;5826;54.756;9.192;2023-07-28T11:40:09;25.60;99.90
11540;DHT22;5826;54.756;9.192;2023-07-28T11:42:38;25.70;99.90
11540;DHT22;5826;54.756;9.192;2023-07-28T11:45:04;25.90;99.90
11540;DHT22;5826;54.756;9.192;2023-07-28T11:47:31;26.10;99.90
11540;DHT22;5826;54.756;9.192;2023-07-28T11:49:57;26.30;99.90
11540;DHT22;5826;54.756;9.192;2023-07-28T11:52:36;26.40;99.90
11540;DHT22;5826;54.756;9.192;2023-07-28T11:55:04;26.40;99.90
11540;DHT22;5826;54.756;9.192;2023-07-28T11:57:30;26.50;99.90
11540;DHT22;5826;54.756;9.192;2023-07-28T11:59:56;26.60;99.90
11540;DHT22;5826;54.756;9.192;2023-07-28T12:02:29;26.70;99.90
11540;DHT22;5826;54.756;9.192;2023-07-28T12:04:55;26.70;99.90
11540;DHT22;5826;54.756;9.192;2023-07-28T12:07:31;26.80;99.90
11540;DHT22;5826;54.756;9.192;2023-07-28T12:10:05;26.90;99.90
11540;DHT22;5826;54.756;9.192;2023-07-28T12:12:40;27.10;99.90
11540;DHT22;5826;54.756;9.192;2023-07-28T12:15:26;27.30;99.90
11540;DHT22;5826;54.756;9.192;2023-07-28T12:18:14;27.30;99.90
11540;DHT22;5826;54.756;9.192;2023-07-28T12:20:46;27.40;99.90
11540;DHT22;5826;54.756;9.192;2023-07-28T12:23:14;27.40;99.90
11540;DHT22;5826;54.756;9.192;2023-07-28T12:25:41;27.30;99.90
11540;DHT22;5826;54.756;9.192;2023-07-28T12:28:06;27.30;99.90
11540;DHT22;5826;54.756;9.192;2023-07-28T12:30:33;27.50;99.90
11540;DHT22;5826;54.756;9.192;2023-07-28T12:32:58;27.70;99.90
11540;DHT22;5826;54.756;9.192;2023-07-28T12:35:25;27.80;99.90
11540;DHT22;5826;54.756;9.192;2023-07-28T12:37:52;28.00;99.90
11540;DHT22;5826;54.756;9.192;2023-07-28T12:40:18;28.20;99.90
11540;DHT22;5826;54.756;9.192;2023-07-28T12:42:47;28.50;99.90
11540;DHT22;5826;54.756;9.192;2023-07-28T12:45:13;28.50;99.90
11540;DHT22;5826;54.756;9.192;2023-07-28T12:47:39;28.40;99.90
11540;DHT22;5826;54.756;9.192;2023-07-28T12:50:05;28.20;99.90
11540;DHT22;5826;54.756;9.192;2023-07-28T12:52:32;28.10;99.90
11540;DHT22;5826;54.756;9.192;2023-07-28T12:54:57;27.80;99.90
11540;DHT22;5826;54.756;9.192;2023-07-28T12:57:24;27.50;99.90
11540;DHT22;5826;54.756;9.192;2023-07-28T12:59:49;27.30;99.90
11540;DHT22;5826;54.756;9.192;2023-07-28T13:02:15;26.90;99.90
11540;DHT22;5826;54.756;9.192;2023-07-28T13:04:41;26.70;99.90
11540;DHT22;5826;54.756;9.192;2023-07-28T13:07:06;26.40;99.90
11540;DHT22;5826;54.756;9.192;2023-07-28T13:09:32;26.20;99.90
11540;DHT22;5826;54.756;9.192;2023-07-28T13:11:57;26.10;99.90
11540;DHT22;5826;54.756;9.192;2023-07-28T13:14:24;25.90;99.90
11540;DHT22;5826;54.756;9.192;2023-07-28T13:16:49;25.70;99.90
11540;DHT22;5826;54.756;9.192;2023-07-28T13:19:15;25.50;99.90
11540;DHT22;5826;54.756;9.192;2023-07-28T13:21:40;25.40;99.90
11540;DHT22;5826;54.756;9.192;2023-07-28T13:24:06;25.40;99.90
11540;DHT22;5826;54.756;9.192;2023-07-28T13:26:32;25.30;99.90
11540;DHT22;5826;54.756;9.192;2023-07-28T13:28:57;25.60;99.90
11540;DHT22;5826;54.756;9.192;2023-07-28T13:31:24;25.80;99.90
11540;DHT22;5826;54.756;9.192;2023-07-28T13:33:49;25.90;99.90
11540;DHT22;5826;54.756;9.192;2023-07-28T13:36:15;25.80;99.90
11540;DHT22;5826;54.756;9.192;2023-07-28T13:38:40;26.10;99.90
11540;DHT22;5826;54.756;9.192;2023-07-28T13:41:06;26.50;99.90
11540;DHT22;5826;54.756;9.192;2023-07-28T13:43:33;26.80;99.90
11540;DHT22;5826;54.756;9.192;2023-07-28T13:46:00;26.90;99.90
11540;DHT22;5826;54.756;9.192;2023-07-28T13:48:25;27.10;99.90
11540;DHT22;5826;54.756;9.192;2023-07-28T13:50:51;27.30;99.90
11540;DHT22;5826;54.756;9.192;2023-07-28T13:53:16;27.30;99.90
11540;DHT22;5826;54.756;9.192;2023-07-28T13:55:42;26.90;99.90
11540;DHT22;5826;54.756;9.192;2023-07-28T13:58:07;27.00;99.90
11540;DHT22;5826;54.756;9.192;2023-07-28T14:00:33;27.30;99.90
11540;DHT22;5826;54.756;9.192;2023-07-28T14:02:59;27.40;99.90
11540;DHT22;5826;54.756;9.192;2023-07-28T14:05:24;27.80;99.90
11540;DHT22;5826;54.756;9.192;2023-07-28T14:07:50;28.10;99.90
11540;DHT22;5826;54.756;9.192;2023-07-28T14:10:15;28.30;99.90
11540;DHT22;5826;54.756;9.192;2023-07-28T14:12:40;27.90;99.90
11540;DHT22;5826;54.756;9.192;2023-07-28T14:15:07;27.30;99.90
11540;DHT22;5826;54.756;9.192;2023-07-28T14:17:33;26.70;99.90
11540;DHT22;5826;54.756;9.192;2023-07-28T14:19:59;26.30;99.90
11540;DHT22;5826;54.756;9.192;2023-07-28T14:22:24;25.90;99.90
11540;DHT22;5826;54.756;9.192;2023-07-28T14:24:50;25.90;99.90
11540;DHT22;5826;54.756;9.192;2023-07-28T14:27:15;25.60;99.90
11540;DHT22;5826;54.756;9.192;2023-07-28T14:29:41;25.40;99.90
11540;DHT22;5826;54.756;9.192;2023-07-28T14:32:07;25.20;99.90
11540;DHT22;5826;54.756;9.192;2023-07-28T14:34:33;25.10;99.90
11540;DHT22;5826;54.756;9.192;2023-07-28T14:37:03;25.00;99.90
11540;DHT22;5826;54.756;9.192;2023-07-28T14:39:30;24.90;99.90
11540;DHT22;5826;54.756;9.192;2023-07-28T14:41:55;25.00;99.90
11540;DHT22;5826;54.756;9.192;2023-07-28T14:44:21;25.00;99.90
11540;DHT22;5826;54.756;9.192;2023-07-28T14:46:46;25.00;99.90
11540;DHT22;5826;54.756;9.192;2023-07-28T14:49:12;25.00;99.90
11540;DHT22;5826;54.756;9.192;2023-07-28T14:51:37;25.00;99.90
11540;DHT22;5826;54.756;9.192;2023-07-28T14:54:03;24.90;99.90
11540;DHT22;5826;54.756;9.192;2023-07-28T14:56:28;24.90;99.90
11540;DHT22;5826;54.756;9.192;2023-07-28T14:58:54;25.00;99.90
11540;DHT22;5826;54.756;9.192;2023-07-28T15:01:20;25.00;99.90
11540;DHT22;5826;54.756;9.192;2023-07-28T15:03:46;25.00;99.90
11540;DHT22;5826;54.756;9.192;2023-07-28T15:06:12;25.00;99.90
11540;DHT22;5826;54.756;9.192;2023-07-28T15:08:37;25.00;99.90
11540;DHT22;5826;54.756;9.192;2023-07-28T15:11:03;25.10;99.90
11540;DHT22;5826;54.756;9.192;2023-07-28T15:13:28;25.10;99.90
11540;DHT22;5826;54.756;9.192;2023-07-28T15:15:54;25.30;99.90
11540;DHT22;5826;54.756;9.192;2023-07-28T15:18:20;25.10;99.90
11540;DHT22;5826;54.756;9.192;2023-07-28T15:20:45;25.30;99.90
11540;DHT22;5826;54.756;9.192;2023-07-28T15:23:11;25.50;99.90
11540;DHT22;5826;54.756;9.192;2023-07-28T15:25:36;25.60;99.90
11540;DHT22;5826;54.756;9.192;2023-07-28T15:28:12;25.80;99.90
11540;DHT22;5826;54.756;9.192;2023-07-28T15:30:38;26.30;99.90
11540;DHT22;5826;54.756;9.192;2023-07-28T15:33:04;26.70;99.90
11540;DHT22;5826;54.756;9.192;2023-07-28T15:35:29;27.30;99.90
11540;DHT22;5826;54.756;9.192;2023-07-28T15:37:55;27.60;99.90
11540;DHT22;5826;54.756;9.192;2023-07-28T15:40:20;27.90;99.90
11540;DHT22;5826;54.756;9.192;2023-07-28T15:42:46;28.20;99.90
11540;DHT22;5826;54.756;9.192;2023-07-28T15:45:12;28.20;99.90
11540;DHT22;5826;54.756;9.192;2023-07-28T15:47:38;27.90;99.90
11540;DHT22;5826;54.756;9.192;2023-07-28T15:50:04;27.20;99.90